Time;durP1;ratioP1;P1;durP2;ratioP2;P2;SDS_P1;SDS_P2;PMS_P1;PMS_P2;Temp;Humidity;BMP_temperature;BMP_pressure;BME280_temperature;BME280_humidity;BME280_pressure;Samples;Min_cycle;Max_cycle;Signal;HPM_P1;HPM_P2
2021/05/08 00:01:38;;;;;;;8.95;3.78;;;;;;;6.96;63.58;100369.50;4395458;32;20407;-73
2021/05/08 00:04:05;;;;;;;12.55;3.45;;;;;;;6.98;63.49;100356.66;4392009;32;20112;-73
2021/05/08 00:06:33;;;;;;;10.60;3.00;;;;;;;6.95;63.48;100360.31;4391948;32;20474;-73
2021/05/08 00:09:04;;;;;;;10.10;3.42;;;;;;;7.02;63.30;100351.78;4397074;32;20065;-73
2021/05/08 00:11:29;;;;;;;7.30;3.67;;;;;;;6.81;63.95;100348.53;4391790;32;20436;-73
2021/05/08 00:13:55;;;;;;;10.50;3.40;;;;;;;6.75;64.40;100342.63;4393200;32;20820;-73
2021/05/08 00:16:20;;;;;;;11.43;4.28;;;;;;;6.73;64.58;100336.69;4391385;32;20070;-73
2021/05/08 00:18:46;;;;;;;8.57;3.47;;;;;;;6.69;64.57;100333.13;4392658;32;20030;-73
2021/05/08 00:21:12;;;;;;;12.50;3.80;;;;;;;6.71;64.78;100335.50;4393124;32;20093;-73
2021/05/08 00:23:37;;;;;;;11.35;3.62;;;;;;;6.72;64.56;100332.28;4392662;32;20097;-73
2021/05/08 00:26:03;;;;;;;13.48;3.62;;;;;;;6.69;64.61;100333.13;4393397;32;20395;-73
2021/05/08 00:28:29;;;;;;;5.50;3.42;;;;;;;6.66;64.68;100319.22;4393566;32;20351;-73
2021/05/08 00:30:55;;;;;;;9.85;3.40;;;;;;;6.70;64.58;100319.94;4394431;32;20475;-73
2021/05/08 00:33:21;;;;;;;8.38;3.37;;;;;;;6.65;64.77;100312.81;4394094;32;20137;-73
2021/05/08 00:35:47;;;;;;;7.45;3.70;;;;;;;6.65;64.59;100309.22;4389739;32;20039;-73
2021/05/08 00:38:12;;;;;;;8.00;3.10;;;;;;;6.77;64.06;100305.84;4393684;32;20075;-74
2021/05/08 00:40:38;;;;;;;9.00;4.30;;;;;;;6.80;64.14;100302.19;4391895;32;20077;-73
2021/05/08 00:43:04;;;;;;;10.77;4.07;;;;;;;6.75;64.47;100292.28;4391504;32;20439;-73
2021/05/08 00:45:30;;;;;;;8.88;3.72;;;;;;;6.77;64.79;100286.28;4391265;32;20042;-73
2021/05/08 00:48:03;;;;;;;13.13;4.20;;;;;;;6.71;65.33;100285.97;4382117;32;20022;-73
2021/05/08 00:50:31;;;;;;;7.97;3.35;;;;;;;6.66;65.70;100282.88;4387066;32;20422;-73
2021/05/08 00:52:57;;;;;;;9.65;3.95;;;;;;;6.79;65.44;100283.84;4389221;32;20472;-73
2021/05/08 00:55:23;;;;;;;8.38;3.75;;;;;;;6.77;65.66;100278.69;4395117;32;20086;-73
2021/05/08 00:57:48;;;;;;;9.98;4.47;;;;;;;6.80;65.34;100269.44;4395864;32;20042;-73
2021/05/08 01:00:15;;;;;;;9.43;4.55;;;;;;;6.73;65.37;100263.97;4394300;32;20085;-73
2021/05/08 01:02:41;;;;;;;13.77;5.40;;;;;;;6.73;65.73;100260.38;4393970;32;20433;-73
2021/05/08 01:05:08;;;;;;;12.50;4.80;;;;;;;6.79;65.55;100258.69;4393357;32;20470;-73
2021/05/08 01:07:38;;;;;;;9.45;4.18;;;;;;;6.83;65.86;100259.41;4394798;32;20073;-73
2021/05/08 01:10:06;;;;;;;11.12;3.67;;;;;;;6.88;65.57;100253.34;4390817;32;20077;-73
2021/05/08 01:12:33;;;;;;;8.15;3.35;;;;;;;6.89;65.15;100250.13;4396430;32;20089;-73
2021/05/08 01:15:00;;;;;;;9.35;3.33;;;;;;;6.95;64.54;100236.44;4390908;32;20060;-73
2021/05/08 01:17:27;;;;;;;12.55;3.47;;;;;;;6.99;64.61;100234.34;4394405;32;20022;-73
2021/05/08 01:19:53;;;;;;;7.25;3.28;;;;;;;7.02;64.07;100219.50;4392743;32;20600;-73
2021/05/08 01:22:18;;;;;;;9.10;3.85;;;;;;;6.96;64.28;100213.63;4393369;32;20031;-73
2021/05/08 01:24:44;;;;;;;5.65;3.15;;;;;;;7.03;64.35;100207.13;4391768;32;20563;-73
2021/05/08 01:27:10;;;;;;;8.25;3.60;;;;;;;7.05;64.10;100204.66;4392143;32;20111;-73
2021/05/08 01:29:36;;;;;;;7.03;3.15;;;;;;;7.12;64.03;100193.37;4378519;32;20439;-73
2021/05/08 01:32:01;;;;;;;7.90;3.58;;;;;;;7.11;63.75;100186.16;4392489;32;20066;-73
2021/05/08 01:34:27;;;;;;;6.93;3.45;;;;;;;7.09;63.95;100183.03;4390945;32;20427;-73
2021/05/08 01:36:53;;;;;;;9.10;3.95;;;;;;;7.12;64.18;100187.78;4393759;32;20414;-73
2021/05/08 01:39:18;;;;;;;9.50;3.65;;;;;;;7.15;64.06;100190.47;4387085;32;20061;-73
2021/05/08 01:41:44;;;;;;;10.52;4.07;;;;;;;7.20;63.97;100169.59;4389862;32;20110;-74
2021/05/08 01:44:10;;;;;;;9.48;4.50;;;;;;;7.27;63.85;100172.28;4392239;32;20462;-73
2021/05/08 01:46:36;;;;;;;12.57;4.28;;;;;;;7.24;63.61;100168.31;4394753;32;20053;-73
2021/05/08 01:49:04;;;;;;;11.88;4.37;;;;;;;7.33;63.86;100164.97;4392215;32;20043;-73
2021/05/08 01:51:30;;;;;;;13.30;4.60;;;;;;;7.35;63.50;100160.53;4396285;32;20038;-73
2021/05/08 01:53:56;;;;;;;8.07;3.78;;;;;;;7.31;63.88;100151.41;4395730;32;20022;-73
2021/05/08 01:56:22;;;;;;;11.88;4.70;;;;;;;7.35;63.38;100149.31;4396778;32;20555;-73
2021/05/08 01:58:48;;;;;;;8.13;4.05;;;;;;;7.41;63.58;100155.19;4391603;32;20484;-73
2021/05/08 02:01:13;;;;;;;10.23;4.50;;;;;;;7.42;63.15;100154.75;4395082;32;20740;-73
2021/05/08 02:03:39;;;;;;;9.85;4.43;;;;;;;7.45;63.40;100155.91;4390372;32;20469;-73
2021/05/08 02:06:05;;;;;;;12.25;3.85;;;;;;;7.40;63.53;100145.22;4396778;32;20413;-73
2021/05/08 02:08:30;;;;;;;11.23;4.25;;;;;;;7.49;63.44;100134.25;4396835;32;20046;-73
2021/05/08 02:10:56;;;;;;;8.32;4.85;;;;;;;7.53;63.39;100126.56;4393486;32;20113;-73
2021/05/08 02:13:23;;;;;;;6.93;3.92;;;;;;;7.55;63.36;100124.13;4394178;32;20478;-73
2021/05/08 02:15:48;;;;;;;8.63;3.80;;;;;;;7.60;62.54;100109.59;4393852;32;20142;-73
2021/05/08 02:18:16;;;;;;;8.35;4.05;;;;;;;7.71;62.49;100118.56;4392217;32;20050;-73
2021/05/08 02:20:44;;;;;;;8.90;4.57;;;;;;;7.74;62.15;100115.66;4393419;32;20472;-73
2021/05/08 02:23:13;;;;;;;10.15;4.35;;;;;;;7.74;62.59;100106.47;4395588;32;20157;-73
2021/05/08 02:25:39;;;;;;;10.68;4.05;;;;;;;7.71;62.59;100096.16;4394197;32;20064;-73
2021/05/08 02:28:05;;;;;;;10.77;4.20;;;;;;;7.80;62.60;100083.09;4393670;32;20455;-73
2021/05/08 02:30:33;;;;;;;11.68;4.65;;;;;;;7.84;62.47;100077.44;4393893;32;20097;-73
2021/05/08 02:33:00;;;;;;;9.38;4.03;;;;;;;7.86;62.65;100086.19;4396592;32;20034;-73
2021/05/08 02:35:27;;;;;;;14.45;5.18;;;;;;;7.91;62.79;100083.66;4392255;32;20071;-73
2021/05/08 02:37:53;;;;;;;8.90;5.05;;;;;;;7.87;62.57;100084.97;4395079;32;20143;-73
2021/05/08 02:40:23;;;;;;;9.52;4.22;;;;;;;7.99;62.24;100093.47;4394758;32;20018;-73
2021/05/08 02:42:48;;;;;;;11.15;4.22;;;;;;;7.99;62.13;100071.06;4393627;32;20153;-73
2021/05/08 02:45:14;;;;;;;14.20;4.53;;;;;;;8.02;62.22;100072.19;4390060;32;20038;-73
2021/05/08 02:47:43;;;;;;;11.30;4.28;;;;;;;8.05;62.09;100055.31;4392976;32;20129;-73
2021/05/08 02:50:10;;;;;;;15.10;4.82;;;;;;;8.15;61.81;100059.06;4395319;32;20139;-73
2021/05/08 02:52:35;;;;;;;8.98;4.60;;;;;;;8.23;61.62;100066.09;4394772;32;20159;-73
2021/05/08 02:55:01;;;;;;;11.07;4.65;;;;;;;8.20;61.59;100058.53;4396910;32;20147;-73
2021/05/08 02:57:27;;;;;;;13.57;5.32;;;;;;;8.16;61.79;100061.41;4395466;32;20034;-73
2021/05/08 02:59:53;;;;;;;12.02;4.85;;;;;;;8.24;61.62;100066.88;4395209;32;20374;-73
2021/05/08 03:02:18;;;;;;;15.60;5.87;;;;;;;8.22;61.43;100064.50;4390039;32;20517;-73
2021/05/08 03:04:44;;;;;;;9.40;5.30;;;;;;;8.27;61.88;100066.00;4394838;32;20056;-72
2021/05/08 03:07:09;;;;;;;11.48;5.90;;;;;;;8.29;62.12;100047.53;4396949;32;20089;-73
2021/05/08 03:09:35;;;;;;;8.95;4.75;;;;;;;8.29;62.14;100041.94;4391996;32;20383;-73
2021/05/08 03:12:03;;;;;;;11.45;5.60;;;;;;;8.29;61.22;100039.12;4391706;32;20445;-73
2021/05/08 03:14:29;;;;;;;8.82;4.97;;;;;;;8.33;60.90;100022.19;4394264;32;20045;-73
2021/05/08 03:16:56;;;;;;;14.20;4.70;;;;;;;8.28;61.33;100029.12;4392750;32;20057;-73
2021/05/08 03:19:22;;;;;;;7.90;4.07;;;;;;;8.27;61.46;100018.34;4394439;32;20086;-73
2021/05/08 03:21:48;;;;;;;9.93;5.30;;;;;;;8.31;61.61;100017.03;4393275;32;21960;-73
2021/05/08 03:24:14;;;;;;;8.32;4.40;;;;;;;8.35;61.66;100009.34;4394161;32;20469;-73
2021/05/08 03:26:39;;;;;;;10.45;5.25;;;;;;;8.50;61.57;100004.88;4390164;32;20382;-73
2021/05/08 03:29:05;;;;;;;10.73;4.97;;;;;;;8.54;61.40;100002.00;4397795;32;20120;-73
2021/05/08 03:31:32;;;;;;;10.80;4.57;;;;;;;8.57;61.46;100001.91;4393675;32;20030;-73
2021/05/08 03:33:58;;;;;;;10.15;4.72;;;;;;;8.63;61.22;100000.13;4386069;32;20034;-73
2021/05/08 03:36:25;;;;;;;10.40;4.70;;;;;;;8.68;61.38;99993.97;4394014;32;20066;-73
2021/05/08 03:38:50;;;;;;;9.82;4.60;;;;;;;8.78;61.08;99983.69;4394945;32;20061;-73
2021/05/08 03:41:16;;;;;;;12.45;5.40;;;;;;;8.86;60.96;99971.00;4394186;32;20076;-73
2021/05/08 03:43:41;;;;;;;9.00;4.65;;;;;;;8.88;60.98;99965.75;4395299;32;20233;-73
2021/05/08 03:46:07;;;;;;;11.68;5.00;;;;;;;8.95;60.67;99959.91;4393866;32;20086;-73
2021/05/08 03:48:33;;;;;;;9.38;4.60;;;;;;;8.96;60.77;99947.47;4393707;32;20074;-73
2021/05/08 03:50:59;;;;;;;8.45;5.00;;;;;;;9.07;60.74;99957.16;4394187;32;20042;-73
2021/05/08 03:53:25;;;;;;;11.35;5.15;;;;;;;9.03;60.64;99939.63;4395800;32;20374;-73
2021/05/08 03:55:51;;;;;;;15.55;5.28;;;;;;;9.09;60.55;99939.84;4392819;32;20061;-73
2021/05/08 03:58:22;;;;;;;11.75;4.90;;;;;;;9.09;60.49;99937.84;4393848;32;20066;-73
2021/05/08 04:00:48;;;;;;;11.07;4.72;;;;;;;9.18;60.67;99937.19;4393153;32;20108;-73
2021/05/08 04:03:13;;;;;;;12.75;5.10;;;;;;;9.17;60.65;99927.97;4395438;32;20082;-73
2021/05/08 04:05:39;;;;;;;13.18;5.35;;;;;;;9.28;60.27;99922.81;4396781;32;20117;-74
2021/05/08 04:08:05;;;;;;;12.95;5.47;;;;;;;9.33;60.40;99925.03;4395490;32;20100;-73
2021/05/08 04:10:30;;;;;;;13.77;5.72;;;;;;;9.42;60.19;99919.53;4394054;32;20386;-73
2021/05/08 04:12:56;;;;;;;13.48;5.60;;;;;;;9.40;60.44;99919.22;4391636;32;20082;-73
2021/05/08 04:15:22;;;;;;;14.60;5.85;;;;;;;9.44;60.68;99919.88;4394413;32;20061;-74
2021/05/08 04:17:47;;;;;;;12.10;6.12;;;;;;;9.45;60.60;99915.81;4393337;32;20109;-74
2021/05/08 04:20:13;;;;;;;10.27;5.10;;;;;;;9.51;60.64;99908.41;4395697;32;20107;-73
2021/05/08 04:22:39;;;;;;;12.70;5.78;;;;;;;9.57;60.68;99906.59;4395123;32;20116;-74
2021/05/08 04:25:05;;;;;;;11.27;5.35;;;;;;;9.56;61.04;99896.59;4392483;32;20101;-74
2021/05/08 04:27:30;;;;;;;10.50;5.95;;;;;;;9.59;61.98;99894.91;4393260;32;20068;-73
2021/05/08 04:29:56;;;;;;;11.60;6.15;;;;;;;9.59;62.29;99876.03;4392135;32;20746;-74
2021/05/08 04:32:23;;;;;;;15.05;6.72;;;;;;;9.62;62.74;99888.38;4396009;32;20026;-73
2021/05/08 04:34:50;;;;;;;10.75;6.30;;;;;;;9.63;62.67;99889.94;4391330;32;20133;-74
2021/05/08 04:37:15;;;;;;;13.80;6.47;;;;;;;9.63;62.18;99879.50;4393847;32;20099;-73
2021/05/08 04:39:41;;;;;;;13.10;7.45;;;;;;;9.68;62.79;99870.53;4393902;32;20117;-74
2021/05/08 04:42:07;;;;;;;15.10;6.57;;;;;;;9.65;63.74;99874.22;4393155;32;21155;-73
2021/05/08 04:44:33;;;;;;;12.65;6.15;;;;;;;9.61;63.42;99881.97;4393257;32;20071;-74
2021/05/08 04:46:58;;;;;;;16.00;6.43;;;;;;;9.60;63.45;99877.59;4392274;32;20066;-74
2021/05/08 04:49:25;;;;;;;17.20;7.35;;;;;;;9.65;63.08;99865.81;4393003;32;20101;-73
2021/05/08 04:51:54;;;;;;;13.30;6.57;;;;;;;9.58;64.84;99862.44;4395655;32;20052;-73
2021/05/08 04:54:20;;;;;;;19.02;7.03;;;;;;;9.56;65.53;99857.28;4394115;32;20130;-73
2021/05/08 04:56:47;;;;;;;10.77;6.10;;;;;;;9.46;66.81;99850.00;4392659;32;20101;-73
2021/05/08 04:59:13;;;;;;;15.30;5.90;;;;;;;9.41;67.74;99847.75;4389524;32;20074;-73
2021/05/08 05:01:38;;;;;;;12.73;5.65;;;;;;;9.32;64.69;99841.25;4394173;32;20273;-74
2021/05/08 05:04:04;;;;;;;11.30;4.93;;;;;;;9.20;66.95;99834.44;4390806;32;20102;-73
2021/05/08 05:06:30;;;;;;;8.70;4.60;;;;;;;9.10;66.00;99815.94;4393393;32;20454;-73
2021/05/08 05:08:56;;;;;;;8.43;5.37;;;;;;;9.05;66.23;99815.72;4396673;32;20084;-74
2021/05/08 05:11:22;;;;;;;11.20;5.68;;;;;;;8.82;66.39;99816.84;4393640;32;20173;-74
2021/05/08 05:13:48;;;;;;;8.15;4.97;;;;;;;8.81;68.20;99803.25;4393536;32;20046;-73
2021/05/08 05:16:14;;;;;;;8.85;4.87;;;;;;;8.74;68.85;99792.28;4391859;32;20108;-74
2021/05/08 05:18:40;;;;;;;7.50;4.43;;;;;;;8.73;68.69;99794.28;4386820;32;20418;-73
2021/05/08 05:21:05;;;;;;;8.43;5.07;;;;;;;8.68;70.02;99791.25;4390989;32;20057;-73
2021/05/08 05:23:31;;;;;;;17.85;5.28;;;;;;;8.60;70.65;99795.50;4391853;32;20090;-72
2021/05/08 05:25:57;;;;;;;11.70;5.43;;;;;;;8.56;70.89;99784.41;4391955;32;20520;-72
2021/05/08 05:28:25;;;;;;;10.30;4.68;;;;;;;8.54;71.80;99772.06;4393778;32;20050;-72
2021/05/08 05:30:51;;;;;;;12.82;4.85;;;;;;;8.57;72.07;99776.78;4397001;32;20397;-72
2021/05/08 05:33:18;;;;;;;8.50;4.82;;;;;;;8.61;72.22;99764.22;4396490;32;20050;-72
2021/05/08 05:35:47;;;;;;;11.40;4.70;;;;;;;8.68;72.94;99771.63;4396198;32;20066;-72
2021/05/08 05:38:12;;;;;;;11.12;4.70;;;;;;;8.73;72.55;99751.41;4396055;32;20053;-72
2021/05/08 05:40:38;;;;;;;13.70;4.62;;;;;;;8.69;73.31;99747.94;4397078;32;20108;-72
2021/05/08 05:43:04;;;;;;;11.68;4.57;;;;;;;8.62;73.54;99740.53;4399235;32;20505;-72
2021/05/08 05:45:29;;;;;;;11.00;4.62;;;;;;;8.70;73.32;99735.50;4394658;32;20133;-73
2021/05/08 05:47:58;;;;;;;9.07;4.20;;;;;;;8.65;73.50;99722.81;4396973;32;20392;-73
2021/05/08 05:50:25;;;;;;;13.68;4.82;;;;;;;8.63;73.20;99730.91;4394507;32;20723;-73
2021/05/08 05:52:53;;;;;;;16.00;4.90;;;;;;;8.62;73.79;99720.91;4397592;32;20030;-74
2021/05/08 05:55:20;;;;;;;14.27;5.07;;;;;;;8.49;74.92;99708.91;4399232;32;20111;-73
2021/05/08 05:57:47;;;;;;;9.52;4.78;;;;;;;8.57;74.34;99715.09;4393021;32;20097;-73
2021/05/08 06:00:14;;;;;;;12.15;4.72;;;;;;;8.50;74.71;99699.25;4392245;32;20382;-73
2021/05/08 06:02:39;;;;;;;15.13;5.12;;;;;;;8.52;75.83;99696.00;4396152;32;20177;-73
2021/05/08 06:05:06;;;;;;;12.30;5.03;;;;;;;8.55;75.08;99690.31;4396976;32;20053;-73
2021/05/08 06:07:31;;;;;;;15.15;5.20;;;;;;;8.53;75.89;99689.19;4392144;32;20069;-72
2021/05/08 06:09:58;;;;;;;12.43;5.60;;;;;;;8.59;76.40;99676.19;4397577;32;20046;-72
2021/05/08 06:12:23;;;;;;;9.07;4.70;;;;;;;8.63;76.42;99680.44;4396743;32;20111;-73
2021/05/08 06:14:49;;;;;;;17.55;5.22;;;;;;;8.58;76.56;99666.97;4396064;32;20071;-72
2021/05/08 06:17:15;;;;;;;11.77;5.20;;;;;;;8.63;77.25;99662.81;4395417;32;20084;-73
2021/05/08 06:19:41;;;;;;;13.07;5.35;;;;;;;8.48;78.80;99656.09;4394185;32;20034;-73
2021/05/08 06:22:06;;;;;;;13.52;5.43;;;;;;;8.35;78.30;99658.13;4391653;32;20034;-73
2021/05/08 06:24:32;;;;;;;9.85;4.78;;;;;;;8.27;79.05;99649.16;4397610;32;20066;-72
2021/05/08 06:26:58;;;;;;;12.75;5.03;;;;;;;8.30;79.25;99639.88;4390464;32;20329;-72
2021/05/08 06:29:23;;;;;;;15.07;5.45;;;;;;;8.38;81.14;99640.41;4393950;32;20374;-72
2021/05/08 06:31:49;;;;;;;15.38;5.65;;;;;;;8.35;81.75;99619.69;4396728;32;20152;-71
2021/05/08 06:34:14;;;;;;;13.32;6.05;;;;;;;8.37;82.09;99619.25;4395081;32;20106;-72
2021/05/08 06:36:40;;;;;;;14.60;6.20;;;;;;;8.39;82.26;99609.12;4396957;32;20427;-72
2021/05/08 06:39:06;;;;;;;14.20;6.30;;;;;;;8.40;83.42;99607.13;4391150;32;20057;-72
2021/05/08 06:41:31;;;;;;;19.73;5.87;;;;;;;8.45;82.41;99606.53;4394835;32;20158;-73
2021/05/08 06:43:57;;;;;;;18.52;6.50;;;;;;;8.41;81.29;99591.88;4395988;32;20128;-72
2021/05/08 06:46:23;;;;;;;11.60;6.07;;;;;;;8.48;81.69;99595.22;4394460;32;20057;-71
2021/05/08 06:48:49;;;;;;;17.20;6.90;;;;;;;8.47;81.97;99581.66;4398053;32;20079;-72
2021/05/08 06:51:16;;;;;;;12.23;6.30;;;;;;;8.50;81.29;99575.91;4393557;32;20050;-72
2021/05/08 06:53:41;;;;;;;14.73;5.95;;;;;;;8.48;81.23;99574.81;4394148;32;20061;-72
2021/05/08 06:56:07;;;;;;;13.02;6.20;;;;;;;8.34;80.45;99564.09;4392284;32;20042;-72
2021/05/08 06:58:34;;;;;;;17.02;6.03;;;;;;;8.45;80.45;99547.66;4391565;32;20042;-73
2021/05/08 07:01:00;;;;;;;18.05;7.75;;;;;;;8.39;80.11;99546.66;4392964;32;20351;-73
2021/05/08 07:03:25;;;;;;;16.10;7.03;;;;;;;8.37;80.76;99538.72;4392127;32;20490;-73
2021/05/08 07:05:51;;;;;;;14.57;6.22;;;;;;;8.32;80.32;99538.50;4390855;32;20523;-73
2021/05/08 07:08:17;;;;;;;16.08;6.75;;;;;;;8.39;80.71;99532.66;4394071;32;20066;-73
2021/05/08 07:13:20;;;;;;;18.27;7.30;;;;;;;9.03;78.89;99521.53;3979515;32;15155933;-72
2021/05/08 07:15:47;;;;;;;15.40;6.78;;;;;;;9.03;78.89;99521.53;4440069;32;20041;-72
2021/05/08 07:18:13;;;;;;;16.85;6.60;;;;;;;8.64;79.98;99513.72;4442683;32;20451;-73
2021/05/08 07:20:40;;;;;;;12.23;7.20;;;;;;;8.67;79.12;99500.81;4441951;32;20094;-74
2021/05/08 07:23:08;;;;;;;12.55;6.78;;;;;;;8.56;79.78;99487.19;4439317;32;20102;-74
2021/05/08 07:25:37;;;;;;;14.48;7.55;;;;;;;8.62;80.28;99471.34;4442311;32;20061;-73
2021/05/08 07:28:21;;;;;;;16.00;7.43;;;;;;;8.66;79.83;99463.59;4441143;32;20082;-74
2021/05/08 07:30:48;;;;;;;21.67;7.68;;;;;;;8.65;79.44;99445.19;4440918;32;20155;-74
2021/05/08 07:33:15;;;;;;;14.07;7.40;;;;;;;8.63;79.16;99433.66;4441180;32;20096;-74
2021/05/08 07:35:43;;;;;;;16.70;8.27;;;;;;;8.52;79.18;99421.25;4442616;32;20530;-73
2021/05/08 07:38:09;;;;;;;15.43;8.93;;;;;;;8.50;79.01;99402.09;4439407;32;20073;-74
2021/05/08 07:40:38;;;;;;;16.52;8.20;;;;;;;8.49;79.21;99394.13;4441379;32;20063;-73
2021/05/08 07:43:04;;;;;;;21.15;8.98;;;;;;;8.38;79.39;99400.16;4439869;32;20038;-73
2021/05/08 07:45:31;;;;;;;13.80;7.93;;;;;;;8.27;80.18;99394.13;4441327;32;20065;-73
2021/05/08 07:47:57;;;;;;;14.52;8.57;;;;;;;8.23;80.75;99393.50;4441721;32;20386;-73
2021/05/08 07:50:24;;;;;;;13.52;7.53;;;;;;;8.22;80.36;99391.13;4440685;32;20053;-73
2021/05/08 07:52:50;;;;;;;18.02;7.80;;;;;;;8.26;80.84;99378.56;4441068;32;20025;-73
2021/05/08 07:55:15;;;;;;;16.05;7.12;;;;;;;8.27;81.64;99371.72;4438463;32;20141;-73
2021/05/08 07:57:41;;;;;;;8.95;6.72;;;;;;;8.33;81.45;99363.50;4440137;32;20652;-73
2021/05/08 08:00:10;;;;;;;10.90;6.12;;;;;;;8.34;80.80;99365.09;4440763;32;20021;-73
2021/05/08 08:02:37;;;;;;;9.73;6.37;;;;;;;8.45;81.20;99355.03;4433278;32;20081;-71
2021/05/08 08:05:04;;;;;;;11.20;6.70;;;;;;;8.53;80.84;99352.75;4433800;32;20096;-74
2021/05/08 08:07:30;;;;;;;11.38;6.18;;;;;;;8.57;79.83;99347.78;4434219;32;20074;-74
2021/05/08 08:09:56;;;;;;;12.68;6.80;;;;;;;8.49;79.68;99340.88;4432457;32;20421;-71
2021/05/08 08:12:21;;;;;;;10.20;5.20;;;;;;;8.53;80.52;99338.72;4429428;32;20038;-72
2021/05/08 08:14:48;;;;;;;11.55;5.95;;;;;;;8.24;81.03;99336.19;4431244;32;20092;-73
2021/05/08 08:17:14;;;;;;;10.40;6.18;;;;;;;8.30;81.47;99345.59;4434543;32;20069;-72
2021/05/08 08:19:40;;;;;;;10.90;6.25;;;;;;;8.36;82.18;99335.34;4429949;32;20402;-73
2021/05/08 08:22:05;;;;;;;9.52;5.60;;;;;;;8.48;81.88;99319.69;4432003;32;20045;-72
2021/05/08 08:24:32;;;;;;;12.20;5.82;;;;;;;8.50;81.01;99315.19;4422362;32;20070;-72
2021/05/08 08:26:57;;;;;;;9.63;5.40;;;;;;;8.56;80.80;99304.94;4421173;32;20161;-72
2021/05/08 08:29:23;;;;;;;8.57;5.87;;;;;;;8.58;82.12;99304.47;4421353;32;20132;-72
2021/05/08 08:31:49;;;;;;;9.38;5.37;;;;;;;8.65;82.17;99295.81;4421533;32;21220;-72
2021/05/08 08:34:15;;;;;;;9.15;4.55;;;;;;;8.72;81.56;99289.91;4423916;32;20490;-72
2021/05/08 08:36:41;;;;;;;8.10;5.43;;;;;;;8.56;81.42;99290.16;4417986;32;20479;-71
2021/05/08 08:39:07;;;;;;;6.57;4.60;;;;;;;8.62;82.07;99285.50;4421690;32;20072;-72
2021/05/08 08:41:33;;;;;;;6.53;4.90;;;;;;;8.62;82.45;99283.47;4420566;32;20077;-71
2021/05/08 08:43:59;;;;;;;7.62;4.82;;;;;;;8.66;81.89;99275.72;4419908;32;20436;-72
2021/05/08 08:46:25;;;;;;;8.43;4.85;;;;;;;8.66;81.60;99277.72;4419637;32;20366;-72
2021/05/08 08:48:51;;;;;;;6.95;4.47;;;;;;;8.73;82.53;99269.81;4421039;32;20053;-72
2021/05/08 08:51:17;;;;;;;11.90;3.90;;;;;;;8.89;83.15;99254.75;4417286;32;20095;-72
2021/05/08 08:53:43;;;;;;;8.93;4.68;;;;;;;8.95;81.86;99241.66;4419322;32;20051;-73
2021/05/08 08:56:10;;;;;;;7.93;4.72;;;;;;;9.05;82.60;99249.66;4418781;32;20061;-72
2021/05/08 08:58:39;;;;;;;8.25;4.18;;;;;;;9.11;82.45;99230.97;4418455;32;20092;-73
2021/05/08 09:01:05;;;;;;;5.87;3.80;;;;;;;9.13;82.36;99228.47;4420377;32;20077;-73
2021/05/08 09:03:33;;;;;;;7.47;3.75;;;;;;;9.25;82.06;99223.97;4418753;32;20128;-72
2021/05/08 09:06:00;;;;;;;5.87;3.45;;;;;;;9.29;81.49;99211.34;4420691;32;20478;-72
2021/05/08 09:08:29;;;;;;;11.55;5.65;;;;;;;9.26;82.06;99205.88;4423670;32;20052;-72
2021/05/08 09:11:17;;;;;;;6.40;3.62;;;;;;;9.34;82.51;99199.50;4420387;32;20122;-72
2021/05/08 09:13:43;;;;;;;5.28;2.62;;;;;;;9.47;82.28;99193.72;4419890;32;20146;-72
2021/05/08 09:16:11;;;;;;;5.05;3.50;;;;;;;9.48;81.68;99184.06;4420299;32;20099;-72
2021/05/08 09:18:38;;;;;;;5.37;3.50;;;;;;;9.51;81.67;99171.91;4418845;32;20093;-72
2021/05/08 09:21:25;;;;;;;5.68;2.95;;;;;;;9.71;82.69;99163.75;4419874;32;20474;-72
2021/05/08 09:23:51;;;;;;;4.90;2.90;;;;;;;9.85;81.87;99165.91;4417598;32;20094;-72
2021/05/08 09:26:17;;;;;;;7.62;3.40;;;;;;;9.75;81.20;99151.09;4419763;32;20068;-72
2021/05/08 09:28:57;;;;;;;3.75;2.80;;;;;;;9.79;80.84;99148.13;4418651;32;20070;-72
2021/05/08 09:31:23;;;;;;;3.97;2.85;;;;;;;9.82;80.43;99135.97;4418601;32;20089;-71
2021/05/08 09:33:51;;;;;;;5.00;2.80;;;;;;;9.86;80.71;99128.12;4420087;32;20037;-72
2021/05/08 09:36:17;;;;;;;3.87;3.05;;;;;;;9.85;80.02;99113.31;4418517;32;20073;-73
2021/05/08 09:38:45;;;;;;;5.55;3.00;;;;;;;9.94;80.45;99110.47;4417998;32;20567;-73
2021/05/08 09:41:13;;;;;;;4.40;3.15;;;;;;;10.11;80.88;99105.28;4420478;32;20081;-73
2021/05/08 09:43:39;;;;;;;6.93;3.30;;;;;;;10.23;80.35;99103.50;4420186;32;20069;-73
2021/05/08 09:46:07;;;;;;;5.03;2.60;;;;;;;10.34;80.34;99090.47;4416734;32;20083;-73
2021/05/08 09:48:34;;;;;;;3.05;2.40;;;;;;;10.40;79.40;99085.00;4416686;32;20049;-73
2021/05/08 09:56:39;;;;;;;6.15;2.70;;;;;;;11.06;78.58;99067.50;4001031;31;15015671;-72
2021/05/08 10:09:57;;;;;;;6.10;2.75;;;;;;;11.76;77.70;99032.69;3963862;32;15022928;-74
2021/05/08 10:12:24;;;;;;;3.00;2.53;;;;;;;11.76;77.70;99032.69;4418698;32;20124;-74
2021/05/08 10:14:53;;;;;;;5.30;2.50;;;;;;;11.45;79.26;99028.78;4418705;32;20030;-74
2021/05/08 10:17:21;;;;;;;3.03;2.30;;;;;;;11.53;78.66;99024.31;4417703;32;20026;-74
2021/05/08 10:19:49;;;;;;;2.17;1.70;;;;;;;11.57;77.55;99019.28;4418715;32;20062;-74
2021/05/08 10:22:15;;;;;;;3.92;2.42;;;;;;;11.64;76.90;99013.28;4420285;32;20206;-74
2021/05/08 10:24:45;;;;;;;3.78;2.67;;;;;;;11.71;77.52;99010.84;4416311;32;20061;-73
2021/05/08 10:27:11;;;;;;;5.85;2.95;;;;;;;11.80;77.99;99010.72;4402111;32;20157;-73
2021/05/08 10:29:46;;;;;;;4.18;2.30;;;;;;;11.89;78.72;98990.09;4417503;32;20297;-73
2021/05/08 10:32:15;;;;;;;5.05;2.60;;;;;;;12.03;77.22;98992.88;4417811;32;20030;-73
2021/05/08 10:37:31;;;;;;;5.30;2.50;;;;;;;12.81;74.43;98969.28;3980530;32;15022794;-74
2021/05/08 10:53:12;;;;;;;4.75;2.95;;;;;;;13.13;73.19;98979.37;3941437;32;15025313;-72
2021/05/08 11:00:57;;;;;;;4.20;1.87;;;;;;;13.47;74.02;98957.91;3979300;32;15026154;-72
2021/05/08 11:13:53;;;;;;;6.95;2.78;;;;;;;13.94;74.10;98935.34;3982323;32;15034520;-73
2021/05/08 11:16:20;;;;;;;4.18;2.03;;;;;;;13.94;74.10;98935.34;4434790;32;20428;-74
2021/05/08 11:18:48;;;;;;;4.68;2.70;;;;;;;13.49;73.22;98933.50;4434764;32;20092;-74
2021/05/08 11:29:24;;;;;;;2.13;1.63;;;;;;;14.16;73.13;98922.62;4001586;31;15014948;-73
2021/05/08 11:31:56;;;;;;;3.65;2.47;;;;;;;13.69;72.27;98910.00;4455302;32;20516;-73
2021/05/08 11:34:27;;;;;;;3.47;2.47;;;;;;;13.67;73.25;98916.16;4455983;32;20021;-74
2021/05/08 11:39:48;;;;;;;1.67;1.45;;;;;;;14.59;70.70;98899.44;3986057;32;15026478;-74
2021/05/08 11:44:55;;;;;;;3.00;1.77;;;;;;;14.17;70.86;98898.72;3992489;31;15017786;-73
2021/05/08 11:47:27;;;;;;;3.50;1.70;;;;;;;14.07;72.76;98893.28;4446530;32;20154;-74
2021/05/08 11:50:13;;;;;;;6.10;2.55;;;;;;;14.26;72.97;98892.88;4451781;32;21240;-74
2021/05/08 11:55:20;;;;;;;4.32;2.33;;;;;;;14.81;72.05;98878.88;4001675;31;15019396;-74
2021/05/08 11:57:57;;;;;;;2.40;1.87;;;;;;;14.81;72.05;98878.88;4449041;32;20743;-74
2021/05/08 12:00:28;;;;;;;2.92;2.17;;;;;;;14.52;71.75;98873.66;4447143;32;20410;-74
2021/05/08 12:03:15;;;;;;;4.90;3.08;;;;;;;14.52;71.08;98865.97;4431992;32;20405;-74
2021/05/08 12:05:43;;;;;;;3.37;2.37;;;;;;;14.44;71.31;98864.91;4430739;32;20053;-73
2021/05/08 12:08:09;;;;;;;4.20;2.85;;;;;;;14.47;72.46;98857.44;4430400;32;20040;-74
2021/05/08 12:10:36;;;;;;;6.60;2.90;;;;;;;14.59;73.58;98859.03;4429977;32;20166;-74
2021/05/08 12:13:04;;;;;;;4.05;2.40;;;;;;;14.96;74.25;98849.03;4434065;32;20488;-74
2021/05/08 12:18:09;;;;;;;5.40;3.20;;;;;;;16.15;70.74;98849.91;3967885;32;15022967;-73
2021/05/08 12:20:40;;;;;;;7.45;3.50;;;;;;;16.15;70.74;98849.91;4416015;32;20060;-73
2021/05/08 12:23:12;;;;;;;3.75;3.00;;;;;;;15.68;71.43;98837.69;4412596;32;20095;-73
2021/05/08 12:25:38;;;;;;;8.13;3.10;;;;;;;15.86;72.29;98835.06;4417620;32;20025;-73
2021/05/08 12:28:21;;;;;;;6.65;3.90;;;;;;;15.92;69.15;98837.88;4409679;32;20539;-73
2021/05/08 12:30:50;;;;;;;8.85;4.25;;;;;;;15.81;70.61;98823.72;4411496;32;20073;-73
2021/05/08 12:33:19;;;;;;;4.37;3.20;;;;;;;15.98;71.06;98827.28;4411789;32;20074;-73
2021/05/08 12:35:45;;;;;;;4.37;3.25;;;;;;;16.24;71.55;98821.22;4414377;32;20091;-74
2021/05/08 12:38:23;;;;;;;4.72;3.90;;;;;;;16.74;68.58;98808.31;4414837;32;20087;-73
2021/05/08 12:40:49;;;;;;;7.30;3.70;;;;;;;16.49;69.50;98812.37;4418114;32;20066;-73